createdAt,value
2018-07-08T00:01:32.654Z,15.80
2018-07-08T00:04:00.948Z,15.70
2018-07-08T00:06:29.812Z,15.60
2018-07-08T00:08:59.543Z,15.60
2018-07-08T00:11:27.798Z,15.50
2018-07-08T00:13:56.083Z,15.40
2018-07-08T00:16:24.347Z,15.40
2018-07-08T00:18:52.777Z,15.40
2018-07-08T00:21:21.076Z,15.40
2018-07-08T00:26:18.217Z,15.40
2018-07-08T00:28:46.456Z,15.40
2018-07-08T00:31:15.131Z,15.50
2018-07-08T00:33:47.296Z,15.50
2018-07-08T00:36:15.556Z,15.60
2018-07-08T00:38:43.780Z,15.70
2018-07-08T00:41:12.056Z,15.70
2018-07-08T00:43:40.345Z,15.70
2018-07-08T00:46:08.572Z,15.70
2018-07-08T00:48:39.853Z,15.60
2018-07-08T00:51:08.112Z,15.50
2018-07-08T00:53:36.433Z,15.50
2018-07-08T00:56:05.284Z,15.50
2018-07-08T00:58:33.572Z,15.40
2018-07-08T01:01:01.897Z,15.30
2018-07-08T01:03:30.182Z,15.20
2018-07-08T01:05:58.435Z,15.10
2018-07-08T01:08:26.694Z,15.00
2018-07-08T01:10:54.967Z,15.00
2018-07-08T01:13:23.202Z,14.90
2018-07-08T01:15:51.447Z,14.90
2018-07-08T01:18:19.903Z,14.90
2018-07-08T01:20:48.152Z,14.90
2018-07-08T01:23:16.384Z,14.80
2018-07-08T01:25:55.865Z,14.80
2018-07-08T01:28:24.494Z,14.80
2018-07-08T01:33:20.723Z,14.60
2018-07-08T01:35:48.984Z,14.60
2018-07-08T01:38:17.218Z,14.60
2018-07-08T01:40:45.623Z,14.70
2018-07-08T01:43:13.899Z,14.70
2018-07-08T01:45:42.136Z,14.70
2018-07-08T01:48:10.368Z,14.60
2018-07-08T01:50:38.636Z,14.50
2018-07-08T01:53:06.868Z,14.40
2018-07-08T01:55:35.211Z,14.40
2018-07-08T01:58:03.467Z,14.30
2018-07-08T02:00:32.044Z,14.30
2018-07-08T02:03:00.276Z,14.20
2018-07-08T02:05:28.465Z,14.20
2018-07-08T02:08:00.498Z,14.10
2018-07-08T02:10:28.816Z,14.10
2018-07-08T02:12:57.206Z,14.10
2018-07-08T02:15:25.667Z,14.20
2018-07-08T02:17:54.932Z,14.20
2018-07-08T02:20:23.207Z,14.20
2018-07-08T02:22:51.606Z,14.20
2018-07-08T02:25:19.851Z,14.20
2018-07-08T02:27:48.185Z,14.10
2018-07-08T02:30:16.693Z,14.00
2018-07-08T02:32:44.965Z,14.00
2018-07-08T02:35:13.171Z,13.90
2018-07-08T02:37:44.577Z,13.90
2018-07-08T02:40:12.785Z,13.90
2018-07-08T02:42:41.024Z,13.80
2018-07-08T02:45:09.749Z,13.80
2018-07-08T02:47:38.351Z,14.00
2018-07-08T02:50:06.669Z,13.90
2018-07-08T02:52:34.988Z,14.00
2018-07-08T02:55:03.198Z,13.90
2018-07-08T02:57:31.614Z,13.90
2018-07-08T02:59:59.857Z,13.80
2018-07-08T03:02:28.160Z,13.80
2018-07-08T03:04:56.399Z,13.70
2018-07-08T03:07:28.928Z,13.70
2018-07-08T03:09:57.174Z,13.60
2018-07-08T03:12:25.432Z,13.60
2018-07-08T03:14:54.592Z,13.60
2018-07-08T03:17:22.856Z,13.50
2018-07-08T03:19:51.121Z,13.50
2018-07-08T03:22:19.337Z,13.70
2018-07-08T03:24:47.593Z,14.00
2018-07-08T03:27:15.851Z,14.20
2018-07-08T03:29:44.108Z,14.20
2018-07-08T03:32:12.479Z,14.10
2018-07-08T03:34:40.713Z,14.00
2018-07-08T03:37:12.565Z,13.90
2018-07-08T03:39:40.853Z,13.80
2018-07-08T03:44:37.431Z,13.80
2018-07-08T03:47:05.693Z,13.70
2018-07-08T03:49:33.926Z,13.80
2018-07-08T03:52:06.117Z,13.80
2018-07-08T03:54:34.399Z,13.90
2018-07-08T03:59:30.892Z,14.00
2018-07-08T04:01:59.154Z,14.00
2018-07-08T04:04:27.563Z,14.10
2018-07-08T04:06:55.804Z,14.10
2018-07-08T04:09:24.070Z,14.10
2018-07-08T04:11:52.601Z,14.20
2018-07-08T04:14:20.835Z,14.30
2018-07-08T04:16:49.089Z,14.80
2018-07-08T04:19:17.294Z,15.40
2018-07-08T04:21:45.568Z,16.20
2018-07-08T04:24:14.347Z,17.20
2018-07-08T04:26:42.939Z,18.20
2018-07-08T04:29:11.179Z,18.80
2018-07-08T04:31:39.794Z,19.70
2018-07-08T04:34:08.045Z,19.90
2018-07-08T04:36:43.127Z,19.60
2018-07-08T04:39:15.005Z,18.80
2018-07-08T04:41:44.169Z,18.10
2018-07-08T04:44:12.413Z,17.70
2018-07-08T04:46:40.666Z,17.50
2018-07-08T04:49:09.259Z,17.40
2018-07-08T04:51:37.474Z,17.50
2018-07-08T04:54:09.302Z,17.80
2018-07-08T04:56:37.540Z,18.30
2018-07-08T04:59:05.816Z,18.60
2018-07-08T05:01:34.191Z,18.80
2018-07-08T05:04:02.469Z,19.10
2018-07-08T05:06:30.773Z,19.50
2018-07-08T05:11:31.269Z,19.80
2018-07-08T05:13:59.509Z,19.20
2018-07-08T05:16:27.848Z,18.30
2018-07-08T05:18:56.128Z,18.00
2018-07-08T05:21:24.411Z,18.20
2018-07-08T05:23:52.693Z,18.70
2018-07-08T05:26:21.277Z,18.60
2018-07-08T05:31:17.931Z,19.30
2018-07-08T05:33:46.179Z,18.20
2018-07-08T05:36:14.436Z,18.60
2018-07-08T05:38:43.362Z,18.80
2018-07-08T05:41:11.625Z,18.30
2018-07-08T05:43:40.067Z,19.10
2018-07-08T05:46:08.362Z,19.40
2018-07-08T05:48:36.591Z,19.80
2018-07-08T05:51:04.818Z,19.80
2018-07-08T05:53:36.518Z,19.00
2018-07-08T05:56:04.828Z,18.50
2018-07-08T05:58:33.146Z,18.30
2018-07-08T06:01:01.375Z,19.40
2018-07-08T06:05:57.932Z,20.30
2018-07-08T06:10:54.670Z,20.10
2018-07-08T06:13:22.938Z,19.80
2018-07-08T06:15:51.190Z,20.50
2018-07-08T06:18:19.440Z,19.80
2018-07-08T06:20:47.737Z,20.30
2018-07-08T06:23:15.989Z,20.70
2018-07-08T06:25:44.665Z,20.30
2018-07-08T06:28:12.916Z,20.10
2018-07-08T06:30:41.143Z,20.00
2018-07-08T06:33:09.427Z,19.90
2018-07-08T06:35:37.679Z,20.10
2018-07-08T06:38:06.878Z,20.80
2018-07-08T06:40:38.430Z,20.40
2018-07-08T06:43:07.534Z,19.60
2018-07-08T06:45:39.051Z,19.70
2018-07-08T06:48:08.060Z,19.20
2018-07-08T06:53:04.286Z,18.20
2018-07-08T06:55:32.920Z,18.40
2018-07-08T06:58:01.197Z,18.40
2018-07-08T07:00:29.489Z,18.20
2018-07-08T07:02:57.956Z,18.10
2018-07-08T07:05:26.359Z,18.30
2018-07-08T07:07:54.602Z,18.10
2018-07-08T07:10:22.804Z,17.80
2018-07-08T07:12:51.033Z,17.90
2018-07-08T07:15:19.276Z,18.10
2018-07-08T07:17:53.960Z,18.40
2018-07-08T07:20:22.138Z,18.60
2018-07-08T07:22:50.391Z,18.60
2018-07-08T07:25:22.909Z,18.70
2018-07-08T07:27:51.112Z,18.60
2018-07-08T07:30:19.511Z,18.30
2018-07-08T07:32:48.340Z,18.30
2018-07-08T07:35:16.798Z,18.50
2018-07-08T07:37:45.044Z,18.80
2018-07-08T07:40:17.608Z,18.80
2018-07-08T07:42:46.101Z,19.00
2018-07-08T07:45:14.341Z,19.20
2018-07-08T08:07:04.389Z,19.00
2018-07-08T08:09:32.673Z,19.00
2018-07-08T08:12:01.240Z,19.30
2018-07-08T08:14:29.480Z,19.40
2018-07-08T08:16:57.812Z,19.40
2018-07-08T08:19:26.123Z,19.70
2018-07-08T08:21:54.452Z,19.80
2018-07-08T08:24:23.606Z,19.80
2018-07-08T08:26:52.188Z,19.80
2018-07-08T08:29:24.668Z,19.80
2018-07-08T08:31:52.942Z,19.90
2018-07-08T08:34:52.983Z,19.90
2018-07-08T08:37:22.666Z,19.90
2018-07-08T08:39:51.861Z,20.00
2018-07-08T08:42:23.545Z,20.30
2018-07-08T08:44:52.601Z,20.60
2018-07-08T08:47:21.288Z,20.60
2018-07-08T08:49:50.784Z,20.60
2018-07-08T08:52:20.196Z,20.70
2018-07-08T08:54:48.567Z,20.50
2018-07-08T08:57:20.236Z,20.50
2018-07-08T08:59:52.644Z,20.70
2018-07-08T09:02:21.017Z,20.80
2018-07-08T09:04:49.292Z,20.70
2018-07-08T09:07:18.668Z,20.60
2018-07-08T09:09:46.905Z,20.60
2018-07-08T09:12:19.475Z,20.80
2018-07-08T09:14:47.686Z,20.90
2018-07-08T09:17:16.469Z,20.90
2018-07-08T09:19:44.763Z,20.80
2018-07-08T09:22:12.985Z,20.80
2018-07-08T09:24:41.408Z,20.90
2018-07-08T09:27:13.411Z,21.00
2018-07-08T09:29:41.985Z,21.30
2018-07-08T09:32:10.241Z,21.40
2018-07-08T09:34:38.456Z,21.40
2018-07-08T09:37:06.703Z,21.60
2018-07-08T09:39:34.963Z,21.70
2018-07-08T09:42:03.219Z,22.00
2018-07-08T09:44:35.253Z,21.90
2018-07-08T09:47:03.598Z,21.90
2018-07-08T09:49:31.861Z,21.50
2018-07-08T09:52:00.137Z,21.80
2018-07-08T09:54:28.393Z,22.00
2018-07-08T09:56:56.665Z,22.30
2018-07-08T09:59:24.867Z,22.10
2018-07-08T10:01:53.116Z,22.00
2018-07-08T10:04:22.713Z,22.00
2018-07-08T10:06:52.009Z,22.10
2018-07-08T10:09:21.532Z,22.30
2018-07-08T10:11:49.794Z,22.20
2018-07-08T10:14:19.332Z,22.40
2018-07-08T10:16:47.534Z,22.40
2018-07-08T10:19:17.422Z,22.30
2018-07-08T10:21:45.777Z,22.50
2018-07-08T10:24:14.089Z,22.20
2018-07-08T10:26:42.381Z,22.30
2018-07-08T10:29:13.827Z,22.20
2018-07-08T10:31:48.416Z,22.30
2018-07-08T10:34:16.872Z,22.40
2018-07-08T10:39:18.860Z,22.60
2018-07-08T10:41:47.081Z,22.50
2018-07-08T10:44:18.360Z,22.60
2018-07-08T10:46:46.544Z,22.60
2018-07-08T10:49:14.817Z,22.80
2018-07-08T10:51:43.413Z,23.00
2018-07-08T10:54:11.615Z,23.10
2018-07-08T10:56:39.897Z,23.00
2018-07-08T10:59:08.126Z,23.00
2018-07-08T11:01:36.400Z,23.00
2018-07-08T11:04:04.681Z,23.10
2018-07-08T11:06:33.090Z,23.00
2018-07-08T11:09:01.391Z,23.00
2018-07-08T11:11:29.656Z,23.10
2018-07-08T11:14:01.260Z,23.00
2018-07-08T11:16:29.483Z,23.10
2018-07-08T11:18:57.889Z,23.10
2018-07-08T11:21:26.185Z,23.20
2018-07-08T11:23:54.410Z,23.50
2018-07-08T11:26:22.854Z,23.60
2018-07-08T11:28:51.085Z,23.40
2018-07-08T11:31:19.348Z,23.50
2018-07-08T11:33:47.602Z,23.60
2018-07-08T11:36:15.873Z,23.60
2018-07-08T11:38:44.146Z,23.70
2018-07-08T11:41:12.436Z,23.60
2018-07-08T11:43:40.716Z,23.90
2018-07-08T11:46:09.026Z,24.00
2018-07-08T11:48:37.264Z,23.90
2018-07-08T11:51:05.951Z,23.80
2018-07-08T11:53:34.379Z,23.80
2018-07-08T11:56:02.648Z,24.00
2018-07-08T11:58:31.635Z,24.10
2018-07-08T12:00:59.936Z,24.10
2018-07-08T12:03:28.185Z,24.20
2018-07-08T12:05:56.646Z,24.30
2018-07-08T12:08:24.909Z,24.30
2018-07-08T12:10:54.028Z,24.20
2018-07-08T12:13:22.224Z,24.40
2018-07-08T12:18:23.417Z,24.30
2018-07-08T12:20:52.328Z,24.40
2018-07-08T12:23:20.532Z,24.30
2018-07-08T12:25:48.808Z,24.50
2018-07-08T12:28:23.858Z,24.60
2018-07-08T12:30:56.449Z,24.70
2018-07-08T12:33:24.670Z,24.50
2018-07-08T12:35:53.503Z,24.40
2018-07-08T12:38:21.822Z,24.10
2018-07-08T12:40:50.065Z,24.40
2018-07-08T12:43:18.295Z,24.50
2018-07-08T12:45:46.568Z,24.70
2018-07-08T12:48:18.853Z,24.60
2018-07-08T12:50:47.080Z,24.70
2018-07-08T12:53:15.312Z,24.60
2018-07-08T12:55:43.551Z,24.70
2018-07-08T12:58:11.761Z,24.90
2018-07-08T13:00:43.162Z,24.60
2018-07-08T13:03:11.440Z,24.40
2018-07-08T13:05:39.722Z,24.50
2018-07-08T13:08:08.452Z,24.50
2018-07-08T13:10:36.737Z,24.60
2018-07-08T13:13:05.182Z,24.60
2018-07-08T13:15:33.363Z,24.60
2018-07-08T13:18:04.773Z,24.70
2018-07-08T13:20:33.864Z,24.70
2018-07-08T13:23:02.110Z,24.80
2018-07-08T13:25:30.425Z,25.00
2018-07-08T13:27:58.774Z,25.00
2018-07-08T13:30:26.988Z,24.70
2018-07-08T13:32:59.212Z,24.90
2018-07-08T13:35:27.452Z,25.00
2018-07-08T13:37:55.737Z,25.00
2018-07-08T13:40:24.008Z,25.10
2018-07-08T13:45:27.031Z,25.30
2018-07-08T13:47:59.524Z,25.40
2018-07-08T13:50:27.972Z,25.40
2018-07-08T13:52:56.370Z,25.40
2018-07-08T13:55:24.944Z,25.40
2018-07-08T13:57:53.416Z,25.50
2018-07-08T14:00:21.813Z,25.60
2018-07-08T14:02:54.202Z,25.70
2018-07-08T14:05:22.740Z,25.80
2018-07-08T14:07:51.006Z,25.80
2018-07-08T14:10:19.240Z,25.50
2018-07-08T14:12:47.570Z,25.40
2018-07-08T14:15:15.775Z,25.60
2018-07-08T14:17:48.799Z,25.70
2018-07-08T14:20:17.148Z,25.80
2018-07-08T14:22:45.563Z,25.70
2018-07-08T14:25:13.812Z,25.90
2018-07-08T14:27:42.078Z,25.70
2018-07-08T14:30:10.348Z,25.70
2018-07-08T14:32:42.488Z,25.50
2018-07-08T14:35:10.892Z,25.40
2018-07-08T15:31:16.216Z,26.10
2018-07-08T15:33:51.654Z,26.00
2018-07-08T15:36:20.933Z,26.20
2018-07-08T15:38:49.168Z,26.20
2018-07-08T15:41:17.388Z,26.40
2018-07-08T15:43:45.576Z,26.50
2018-07-08T15:46:13.880Z,26.30
2018-07-08T15:48:46.133Z,26.40
2018-07-08T15:51:14.376Z,26.30
2018-07-08T15:53:42.617Z,26.20
2018-07-08T15:56:10.936Z,26.20
2018-07-08T15:58:39.254Z,26.10
2018-07-08T16:03:35.576Z,26.50
2018-07-08T16:06:03.969Z,26.20
2018-07-08T16:08:32.271Z,26.30
2018-07-08T16:11:01.453Z,26.10
2018-07-08T16:13:29.805Z,26.40
2018-07-08T16:15:58.072Z,27.70
2018-07-08T16:18:26.912Z,29.50
2018-07-08T16:20:55.192Z,29.90
2018-07-08T16:23:23.486Z,29.30
2018-07-08T16:25:51.809Z,29.50
2018-07-08T16:28:20.373Z,30.00
2018-07-08T16:30:49.130Z,29.50
2018-07-08T16:33:17.352Z,31.30
2018-07-08T16:35:51.075Z,32.30
2018-07-08T16:38:19.375Z,31.90
2018-07-08T16:40:47.601Z,31.10
2018-07-08T16:43:16.728Z,31.30
2018-07-08T16:45:45.008Z,31.90
2018-07-08T16:48:13.437Z,32.00
2018-07-08T16:50:41.935Z,33.20
2018-07-08T16:53:10.196Z,31.30
2018-07-08T16:55:38.431Z,30.70
2018-07-08T16:58:06.628Z,30.20
2018-07-08T17:00:35.236Z,30.80
2018-07-08T17:03:03.428Z,31.90
2018-07-08T17:05:31.887Z,31.10
2018-07-08T17:08:00.863Z,29.50
2018-07-08T17:10:30.177Z,30.10
2018-07-08T17:12:58.518Z,31.80
2018-07-08T17:15:26.832Z,32.40
2018-07-08T17:17:55.584Z,31.10
2018-07-08T17:20:23.943Z,29.60
2018-07-08T17:22:52.760Z,28.60
2018-07-08T17:25:21.115Z,30.50
2018-07-08T17:27:49.763Z,31.00
2018-07-08T17:30:18.197Z,31.60
2018-07-08T17:32:47.145Z,29.70
2018-07-08T17:35:15.664Z,29.80
2018-07-08T17:40:13.530Z,28.30
2018-07-08T17:42:41.792Z,27.50
2018-07-08T17:45:10.659Z,27.00
2018-07-08T17:47:38.974Z,27.20
2018-07-08T17:50:07.500Z,27.60
2018-07-08T17:52:36.192Z,27.90
2018-07-08T17:57:33.858Z,27.40
2018-07-08T18:00:02.371Z,27.10
2018-07-08T18:02:30.651Z,26.90
2018-07-08T18:04:58.993Z,26.80
2018-07-08T18:07:27.331Z,26.50
2018-07-08T18:09:55.692Z,26.40
2018-07-08T18:12:24.026Z,26.50
2018-07-08T18:14:52.810Z,26.10
2018-07-08T18:17:21.328Z,26.40
2018-07-08T18:19:49.701Z,26.30
2018-07-08T18:22:18.023Z,26.20
2018-07-08T18:29:43.438Z,25.70
2018-07-08T18:32:11.695Z,25.60
2018-07-08T18:34:40.136Z,25.50
2018-07-08T18:42:12.123Z,25.40
2018-07-08T18:44:40.377Z,25.40
2018-07-08T18:47:08.684Z,25.30
2018-07-08T18:49:36.979Z,25.20
2018-07-08T18:52:05.177Z,25.20
2018-07-08T18:54:37.897Z,25.00
2018-07-08T18:57:06.155Z,25.00
2018-07-08T18:59:35.415Z,24.80
2018-07-08T19:02:04.009Z,24.80
2018-07-08T19:04:32.297Z,24.70
2018-07-08T19:07:11.889Z,24.50
2018-07-08T19:12:08.167Z,24.20
2018-07-08T19:19:32.842Z,23.80
2018-07-08T19:22:06.053Z,23.70
2018-07-08T19:24:38.180Z,23.60
2018-07-08T19:27:06.731Z,23.50
2018-07-08T19:29:34.967Z,23.40
2018-07-08T19:32:03.180Z,23.30
2018-07-08T19:37:03.460Z,23.00
2018-07-08T19:39:31.708Z,22.90
2018-07-08T19:42:00.013Z,22.80
2018-07-08T19:44:28.251Z,22.80
2018-07-08T19:46:56.848Z,22.70
2018-07-08T19:49:25.043Z,22.70
2018-07-08T19:51:54.140Z,22.70
2018-07-08T19:54:25.691Z,22.60
2018-07-08T19:56:54.165Z,22.50
2018-07-08T19:59:23.769Z,22.40
2018-07-08T20:01:52.105Z,22.30
2018-07-08T20:04:20.624Z,22.30
2018-07-08T20:06:48.856Z,22.30
2018-07-08T20:09:21.597Z,22.20
2018-07-08T20:11:49.960Z,22.00
2018-07-08T20:14:18.314Z,21.90
2018-07-08T20:16:46.502Z,21.80
2018-07-08T20:19:14.752Z,21.50
2018-07-08T20:24:11.742Z,21.30
2018-07-08T20:26:40.012Z,21.10
2018-07-08T20:29:09.275Z,21.00
2018-07-08T20:31:38.893Z,20.90
2018-07-08T20:34:07.212Z,20.80
2018-07-08T20:36:36.024Z,20.80
2018-07-08T20:39:05.040Z,20.60
2018-07-08T20:46:29.505Z,20.40
2018-07-08T20:48:58.322Z,20.30
2018-07-08T20:51:26.613Z,20.30
2018-07-08T20:53:55.464Z,20.10
2018-07-08T20:56:27.366Z,20.10
2018-07-08T20:58:55.627Z,20.10
2018-07-08T21:01:23.970Z,20.10
2018-07-08T21:03:53.125Z,19.90
2018-07-08T21:06:21.350Z,19.80
2018-07-08T21:08:54.069Z,19.70
2018-07-08T21:11:22.313Z,19.60
2018-07-08T21:13:50.616Z,19.50
2018-07-08T21:16:18.854Z,19.40
2018-07-08T21:18:47.199Z,19.30
2018-07-08T21:21:15.435Z,19.30
2018-07-08T21:23:43.662Z,19.30
2018-07-08T21:26:11.885Z,19.30
2018-07-08T21:28:40.432Z,19.20
2018-07-08T21:31:09.959Z,19.20
2018-07-08T21:33:38.552Z,19.30
2018-07-08T21:36:07.094Z,19.20
2018-07-08T21:38:35.496Z,19.20
2018-07-08T21:41:07.368Z,19.10
2018-07-08T21:43:35.592Z,19.10
2018-07-08T21:46:03.840Z,19.00
2018-07-08T21:48:32.087Z,19.10
2018-07-08T21:51:00.336Z,19.10
2018-07-08T21:53:28.607Z,19.10
2018-07-08T21:55:56.856Z,19.10
2018-07-08T21:58:25.089Z,19.10
2018-07-08T22:01:03.177Z,19.10
2018-07-08T22:03:31.466Z,19.00
2018-07-08T22:05:59.705Z,18.90
2018-07-08T22:08:33.318Z,18.90
2018-07-08T22:11:02.390Z,18.90
2018-07-08T22:13:30.663Z,19.00
2018-07-08T22:15:58.897Z,19.10
2018-07-08T22:18:27.148Z,19.10
2018-07-08T22:20:55.367Z,19.10
2018-07-08T22:23:23.595Z,19.10
2018-07-08T22:25:55.205Z,19.10
2018-07-08T22:28:23.591Z,19.10
2018-07-08T22:30:51.886Z,19.00
2018-07-08T22:33:20.394Z,19.00
2018-07-08T22:35:48.612Z,19.00
2018-07-08T22:38:17.055Z,19.00
2018-07-08T22:40:49.052Z,18.90
2018-07-08T22:43:17.320Z,18.90
2018-07-08T22:45:45.628Z,18.90
2018-07-08T22:48:13.923Z,18.90
2018-07-08T22:50:42.153Z,19.00
2018-07-08T22:53:10.359Z,19.00
2018-07-08T22:55:42.053Z,19.00
2018-07-08T22:58:10.607Z,18.90
2018-07-08T23:25:09.599Z,18.80
2018-07-08T23:27:37.908Z,18.70
2018-07-08T23:30:06.392Z,18.00
2018-07-08T23:32:34.957Z,18.00
2018-07-08T23:35:03.188Z,17.90
2018-07-08T23:37:32.304Z,17.80
2018-07-08T23:40:00.605Z,17.70
2018-07-08T23:42:32.681Z,17.60
2018-07-08T23:45:00.929Z,17.60
2018-07-08T23:47:29.215Z,17.50
2018-07-08T23:49:57.499Z,17.40
2018-07-08T23:52:25.783Z,17.30
2018-07-08T23:54:54.068Z,17.20
2018-07-08T23:57:22.285Z,17.20
2018-07-08T23:59:50.563Z,17.20
